sensor_id;sensor_type;location;lat;lon;timestamp;pressure;altitude;pressure_sealevel;temperature
12662;BMP180;3200;48.204;11.576;2024-02-26T00:00:10;93373.56;;;3.93
12662;BMP180;3200;48.204;11.576;2024-02-26T00:02:37;93354.34;;;3.80
12662;BMP180;3200;48.204;11.576;2024-02-26T00:05:07;93364.16;;;3.73
12662;BMP180;3200;48.204;11.576;2024-02-26T00:07:34;93370.31;;;3.67
12662;BMP180;3200;48.204;11.576;2024-02-26T00:10:02;93322.81;;;3.39
12662;BMP180;3200;48.204;11.576;2024-02-26T00:12:28;93353.94;;;3.53
12662;BMP180;3200;48.204;11.576;2024-02-26T00:14:54;93356.72;;;3.70
12662;BMP180;3200;48.204;11.576;2024-02-26T00:17:20;93352.25;;;3.59
12662;BMP180;3200;48.204;11.576;2024-02-26T00:19:45;93255.53;;;3.02
12662;BMP180;3200;48.204;11.576;2024-02-26T00:22:11;93365.63;;;3.69
12662;BMP180;3200;48.204;11.576;2024-02-26T00:24:40;93278.28;;;2.90
12662;BMP180;3200;48.204;11.576;2024-02-26T00:27:05;93403.97;;;3.58
12662;BMP180;3200;48.204;11.576;2024-02-26T00:29:31;93304.31;;;2.92
12662;BMP180;3200;48.204;11.576;2024-02-26T00:31:58;93386.47;;;3.52
12662;BMP180;3200;48.204;11.576;2024-02-26T00:34:24;93387.06;;;3.54
12662;BMP180;3200;48.204;11.576;2024-02-26T00:36:50;93286.50;;;2.94
12662;BMP180;3200;48.204;11.576;2024-02-26T00:39:16;93297.22;;;2.92
12662;BMP180;3200;48.204;11.576;2024-02-26T00:41:42;93247.38;;;2.44
12662;BMP180;3200;48.204;11.576;2024-02-26T00:44:07;93392.91;;;3.38
12662;BMP180;3200;48.204;11.576;2024-02-26T00:46:33;93251.66;;;2.56
12662;BMP180;3200;48.204;11.576;2024-02-26T00:49:02;93246.28;;;2.51
12662;BMP180;3200;48.204;11.576;2024-02-26T00:51:28;93317.75;;;2.95
12662;BMP180;3200;48.204;11.576;2024-02-26T00:53:54;93283.25;;;2.80
12662;BMP180;3200;48.204;11.576;2024-02-26T00:56:22;93250.00;;;2.44
12662;BMP180;3200;48.204;11.576;2024-02-26T00:58:48;93316.59;;;2.91
12662;BMP180;3200;48.204;11.576;2024-02-26T01:01:17;93306.81;;;2.68
12662;BMP180;3200;48.204;11.576;2024-02-26T01:03:43;93314.97;;;2.78
12662;BMP180;3200;48.204;11.576;2024-02-26T01:06:09;93247.38;;;2.44
12662;BMP180;3200;48.204;11.576;2024-02-26T01:08:35;93284.31;;;2.42
12662;BMP180;3200;48.204;11.576;2024-02-26T01:11:01;93284.31;;;2.42
12662;BMP180;3200;48.204;11.576;2024-02-26T01:13:27;93291.16;;;2.43
12662;BMP180;3200;48.204;11.576;2024-02-26T01:15:53;93371.75;;;3.21
12662;BMP180;3200;48.204;11.576;2024-02-26T01:18:19;93305.78;;;2.69
12662;BMP180;3200;48.204;11.576;2024-02-26T01:20:44;93378.34;;;3.24
12662;BMP180;3200;48.204;11.576;2024-02-26T01:23:10;93296.38;;;2.62
12662;BMP180;3200;48.204;11.576;2024-02-26T01:25:36;93273.31;;;2.34
12662;BMP180;3200;48.204;11.576;2024-02-26T01:28:02;93266.97;;;2.41
12662;BMP180;3200;48.204;11.576;2024-02-26T01:30:28;93221.03;;;2.02
12662;BMP180;3200;48.204;11.576;2024-02-26T01:32:54;93283.69;;;2.59
12662;BMP180;3200;48.204;11.576;2024-02-26T01:35:20;93297.28;;;2.55
12662;BMP180;3200;48.204;11.576;2024-02-26T01:37:46;93302.28;;;2.57
12662;BMP180;3200;48.204;11.576;2024-02-26T01:40:12;93369.56;;;3.00
12662;BMP180;3200;48.204;11.576;2024-02-26T01:42:43;93307.38;;;2.70
12662;BMP180;3200;48.204;11.576;2024-02-26T01:45:16;93303.97;;;2.51
12662;BMP180;3200;48.204;11.576;2024-02-26T01:47:50;93345.41;;;2.79
12662;BMP180;3200;48.204;11.576;2024-02-26T01:50:17;93347.38;;;2.84
12662;BMP180;3200;48.204;11.576;2024-02-26T01:52:46;93350.50;;;2.74
12662;BMP180;3200;48.204;11.576;2024-02-26T01:55:13;93354.44;;;2.84
12662;BMP180;3200;48.204;11.576;2024-02-26T01:57:45;93360.13;;;2.80
12662;BMP180;3200;48.204;11.576;2024-02-26T02:00:14;93321.75;;;2.49
12662;BMP180;3200;48.204;11.576;2024-02-26T02:02:41;93354.50;;;2.59
12662;BMP180;3200;48.204;11.576;2024-02-26T02:05:09;93357.13;;;2.59
12662;BMP180;3200;48.204;11.576;2024-02-26T02:07:36;93340.44;;;2.53
12662;BMP180;3200;48.204;11.576;2024-02-26T02:10:02;93278.41;;;2.10
12662;BMP180;3200;48.204;11.576;2024-02-26T02:12:28;93258.66;;;1.89
12662;BMP180;3200;48.204;11.576;2024-02-26T02:14:54;93291.38;;;2.23
12662;BMP180;3200;48.204;11.576;2024-02-26T02:17:20;93294.25;;;2.15
12662;BMP180;3200;48.204;11.576;2024-02-26T02:19:46;93317.88;;;2.34
12662;BMP180;3200;48.204;11.576;2024-02-26T02:22:12;93247.44;;;1.82
12662;BMP180;3200;48.204;11.576;2024-02-26T02:24:38;93265.66;;;1.95
12662;BMP180;3200;48.204;11.576;2024-02-26T02:27:04;93329.91;;;2.41
12662;BMP180;3200;48.204;11.576;2024-02-26T02:29:30;93273.88;;;1.99
12662;BMP180;3200;48.204;11.576;2024-02-26T02:31:57;93257.13;;;1.82
12662;BMP180;3200;48.204;11.576;2024-02-26T02:34:23;93328.13;;;2.35
12662;BMP180;3200;48.204;11.576;2024-02-26T02:36:52;93250.69;;;1.77
12662;BMP180;3200;48.204;11.576;2024-02-26T02:39:18;93254.75;;;1.73
12662;BMP180;3200;48.204;11.576;2024-02-26T02:41:44;93329.53;;;2.38
12662;BMP180;3200;48.204;11.576;2024-02-26T02:44:10;93231.22;;;1.92
12662;BMP180;3200;48.204;11.576;2024-02-26T02:46:36;93260.56;;;2.00
12662;BMP180;3200;48.204;11.576;2024-02-26T02:49:02;93276.78;;;2.09
12662;BMP180;3200;48.204;11.576;2024-02-26T02:51:28;93309.78;;;2.35
12662;BMP180;3200;48.204;11.576;2024-02-26T02:53:54;93331.28;;;2.62
12662;BMP180;3200;48.204;11.576;2024-02-26T02:56:19;93308.31;;;2.58
12662;BMP180;3200;48.204;11.576;2024-02-26T02:58:45;93285.69;;;2.26
12662;BMP180;3200;48.204;11.576;2024-02-26T03:01:13;93326.63;;;2.46
12662;BMP180;3200;48.204;11.576;2024-02-26T03:03:39;93316.50;;;2.31
12662;BMP180;3200;48.204;11.576;2024-02-26T03:06:05;93272.41;;;1.85
12662;BMP180;3200;48.204;11.576;2024-02-26T03:08:31;93204.66;;;1.51
12662;BMP180;3200;48.204;11.576;2024-02-26T03:10:58;93256.91;;;2.01
12662;BMP180;3200;48.204;11.576;2024-02-26T03:13:25;93316.78;;;2.23
12662;BMP180;3200;48.204;11.576;2024-02-26T03:15:51;93326.88;;;2.19
12662;BMP180;3200;48.204;11.576;2024-02-26T03:18:16;93276.94;;;2.14
12662;BMP180;3200;48.204;11.576;2024-02-26T03:20:42;93308.25;;;2.27
12662;BMP180;3200;48.204;11.576;2024-02-26T03:23:08;93236.59;;;1.78
12662;BMP180;3200;48.204;11.576;2024-02-26T03:25:37;93304.03;;;2.26
12662;BMP180;3200;48.204;11.576;2024-02-26T03:28:03;93329.28;;;2.39
12662;BMP180;3200;48.204;11.576;2024-02-26T03:30:29;93331.13;;;2.57
12662;BMP180;3200;48.204;11.576;2024-02-26T03:32:55;93232.50;;;2.08
12662;BMP180;3200;48.204;11.576;2024-02-26T03:35:21;93284.06;;;2.25
12662;BMP180;3200;48.204;11.576;2024-02-26T03:37:47;93291.28;;;2.30
12662;BMP180;3200;48.204;11.576;2024-02-26T03:40:13;93334.38;;;2.34
12662;BMP180;3200;48.204;11.576;2024-02-26T03:42:40;93321.44;;;2.39
12662;BMP180;3200;48.204;11.576;2024-02-26T03:45:06;93320.88;;;2.55
12662;BMP180;3200;48.204;11.576;2024-02-26T03:47:32;93316.28;;;2.33
12662;BMP180;3200;48.204;11.576;2024-02-26T03:49:58;93315.91;;;2.29
12662;BMP180;3200;48.204;11.576;2024-02-26T03:52:24;93315.38;;;2.39
12662;BMP180;3200;48.204;11.576;2024-02-26T03:54:50;93315.81;;;2.54
12662;BMP180;3200;48.204;11.576;2024-02-26T03:57:16;93321.38;;;2.64
12662;BMP180;3200;48.204;11.576;2024-02-26T03:59:42;93268.84;;;2.16
12662;BMP180;3200;48.204;11.576;2024-02-26T04:02:08;93250.81;;;1.89
12662;BMP180;3200;48.204;11.576;2024-02-26T04:04:35;93315.38;;;2.39
12662;BMP180;3200;48.204;11.576;2024-02-26T04:07:00;93315.53;;;2.25
12662;BMP180;3200;48.204;11.576;2024-02-26T04:09:26;93308.28;;;2.46
12662;BMP180;3200;48.204;11.576;2024-02-26T04:11:52;93278.84;;;2.25
12662;BMP180;3200;48.204;11.576;2024-02-26T04:14:18;93286.91;;;2.24
12662;BMP180;3200;48.204;11.576;2024-02-26T04:16:44;93310.81;;;2.52
12662;BMP180;3200;48.204;11.576;2024-02-26T04:19:10;93327.78;;;2.68
12662;BMP180;3200;48.204;11.576;2024-02-26T04:21:36;93249.19;;;2.07
12662;BMP180;3200;48.204;11.576;2024-02-26T04:24:02;93260.34;;;2.20
12662;BMP180;3200;48.204;11.576;2024-02-26T04:26:30;93331.13;;;2.57
12662;BMP180;3200;48.204;11.576;2024-02-26T04:28:56;93223.09;;;2.00
12662;BMP180;3200;48.204;11.576;2024-02-26T04:31:21;93278.41;;;2.28
12662;BMP180;3200;48.204;11.576;2024-02-26T04:33:47;93280.88;;;2.23
12662;BMP180;3200;48.204;11.576;2024-02-26T04:36:14;93335.81;;;2.55
12662;BMP180;3200;48.204;11.576;2024-02-26T04:38:44;93285.53;;;2.40
12662;BMP180;3200;48.204;11.576;2024-02-26T04:41:10;93328.78;;;2.67
12662;BMP180;3200;48.204;11.576;2024-02-26T04:43:37;93233.69;;;1.87
12662;BMP180;3200;48.204;11.576;2024-02-26T04:46:08;93296.47;;;2.37
12662;BMP180;3200;48.204;11.576;2024-02-26T04:48:35;93330.97;;;2.70
12662;BMP180;3200;48.204;11.576;2024-02-26T04:51:01;93230.81;;;1.95
12662;BMP180;3200;48.204;11.576;2024-02-26T04:53:27;93324.44;;;2.61
12662;BMP180;3200;48.204;11.576;2024-02-26T04:55:53;93276.66;;;2.04
12662;BMP180;3200;48.204;11.576;2024-02-26T04:58:19;93236.31;;;1.87
12662;BMP180;3200;48.204;11.576;2024-02-26T05:00:44;93328.63;;;2.44
12662;BMP180;3200;48.204;11.576;2024-02-26T05:03:10;93245.88;;;2.18
12662;BMP180;3200;48.204;11.576;2024-02-26T05:05:43;93236.41;;;2.17
12662;BMP180;3200;48.204;11.576;2024-02-26T05:08:09;93301.19;;;2.83
12662;BMP180;3200;48.204;11.576;2024-02-26T05:10:36;93258.34;;;2.71
12662;BMP180;3200;48.204;11.576;2024-02-26T05:13:05;93259.31;;;2.40
12662;BMP180;3200;48.204;11.576;2024-02-26T05:15:31;93241.19;;;2.01
12662;BMP180;3200;48.204;11.576;2024-02-26T05:17:58;93343.34;;;2.63
12662;BMP180;3200;48.204;11.576;2024-02-26T05:20:23;93225.56;;;1.95
12662;BMP180;3200;48.204;11.576;2024-02-26T05:22:49;93332.41;;;3.03
12662;BMP180;3200;48.204;11.576;2024-02-26T05:25:16;93255.38;;;2.30
12662;BMP180;3200;48.204;11.576;2024-02-26T05:27:44;93276.66;;;2.59
12662;BMP180;3200;48.204;11.576;2024-02-26T05:30:11;93290.19;;;2.38
12662;BMP180;3200;48.204;11.576;2024-02-26T05:32:37;93281.16;;;2.34
12662;BMP180;3200;48.204;11.576;2024-02-26T05:35:04;93343.34;;;2.63
12662;BMP180;3200;48.204;11.576;2024-02-26T05:37:30;93278.56;;;2.34
12662;BMP180;3200;48.204;11.576;2024-02-26T05:39:56;93277.25;;;2.43
12662;BMP180;3200;48.204;11.576;2024-02-26T05:42:22;93308.94;;;2.90
12662;BMP180;3200;48.204;11.576;2024-02-26T05:44:47;93292.84;;;2.86
12662;BMP180;3200;48.204;11.576;2024-02-26T05:47:13;93334.38;;;3.07
12662;BMP180;3200;48.204;11.576;2024-02-26T05:49:39;93336.75;;;3.09
12662;BMP180;3200;48.204;11.576;2024-02-26T05:52:06;93291.47;;;2.84
12662;BMP180;3200;48.204;11.576;2024-02-26T05:54:32;93272.53;;;2.81
12662;BMP180;3200;48.204;11.576;2024-02-26T05:56:58;93280.91;;;3.20
12662;BMP180;3200;48.204;11.576;2024-02-26T05:59:24;93341.75;;;3.71
12662;BMP180;3200;48.204;11.576;2024-02-26T06:01:49;93333.00;;;3.89
12662;BMP180;3200;48.204;11.576;2024-02-26T06:04:15;93339.16;;;3.82
12662;BMP180;3200;48.204;11.576;2024-02-26T06:06:44;93344.13;;;3.61
12662;BMP180;3200;48.204;11.576;2024-02-26T06:09:11;93350.72;;;3.51
12662;BMP180;3200;48.204;11.576;2024-02-26T06:11:37;93377.09;;;3.87
12662;BMP180;3200;48.204;11.576;2024-02-26T06:14:03;93376.44;;;3.61
12662;BMP180;3200;48.204;11.576;2024-02-26T06:16:29;93366.78;;;3.73
12662;BMP180;3200;48.204;11.576;2024-02-26T06:18:55;93376.78;;;4.06
12662;BMP180;3200;48.204;11.576;2024-02-26T06:21:22;93357.59;;;4.18
12662;BMP180;3200;48.204;11.576;2024-02-26T06:23:48;93378.25;;;4.02
12662;BMP180;3200;48.204;11.576;2024-02-26T06:26:14;93381.72;;;4.15
12662;BMP180;3200;48.204;11.576;2024-02-26T06:28:40;93390.28;;;4.10
12662;BMP180;3200;48.204;11.576;2024-02-26T06:31:06;93368.78;;;4.13
12662;BMP180;3200;48.204;11.576;2024-02-26T06:33:32;93381.72;;;4.15
12662;BMP180;3200;48.204;11.576;2024-02-26T06:35:58;93348.91;;;4.05
12662;BMP180;3200;48.204;11.576;2024-02-26T06:38:24;93346.75;;;4.14
12662;BMP180;3200;48.204;11.576;2024-02-26T06:40:50;93382.19;;;4.35
12662;BMP180;3200;48.204;11.576;2024-02-26T06:43:16;93419.81;;;4.59
12662;BMP180;3200;48.204;11.576;2024-02-26T06:45:42;93333.50;;;4.21
12662;BMP180;3200;48.204;11.576;2024-02-26T06:48:08;93325.94;;;4.13
12662;BMP180;3200;48.204;11.576;2024-02-26T06:50:34;93319.44;;;4.15
12662;BMP180;3200;48.204;11.576;2024-02-26T06:52:59;93396.81;;;4.78
12662;BMP180;3200;48.204;11.576;2024-02-26T06:55:25;93399.56;;;4.83
12662;BMP180;3200;48.204;11.576;2024-02-26T06:57:51;93337.25;;;4.36
12662;BMP180;3200;48.204;11.576;2024-02-26T07:00:17;93412.13;;;4.93
12662;BMP180;3200;48.204;11.576;2024-02-26T07:02:43;93421.63;;;5.05
12662;BMP180;3200;48.204;11.576;2024-02-26T07:05:09;93346.06;;;4.54
12662;BMP180;3200;48.204;11.576;2024-02-26T07:07:35;93318.16;;;4.41
12662;BMP180;3200;48.204;11.576;2024-02-26T07:10:01;93425.59;;;5.20
12662;BMP180;3200;48.204;11.576;2024-02-26T07:12:30;93321.94;;;4.57
12662;BMP180;3200;48.204;11.576;2024-02-26T07:14:56;93331.63;;;4.80
12662;BMP180;3200;48.204;11.576;2024-02-26T07:17:21;93326.34;;;4.80
12662;BMP180;3200;48.204;11.576;2024-02-26T07:19:47;93365.63;;;5.10
12662;BMP180;3200;48.204;11.576;2024-02-26T07:22:13;93412.22;;;5.50
12662;BMP180;3200;48.204;11.576;2024-02-26T07:24:39;93332.81;;;5.01
12662;BMP180;3200;48.204;11.576;2024-02-26T07:27:05;93314.94;;;5.03
12662;BMP180;3200;48.204;11.576;2024-02-26T07:29:33;93432.59;;;5.95
12662;BMP180;3200;48.204;11.576;2024-02-26T07:31:59;93366.59;;;5.61
12662;BMP180;3200;48.204;11.576;2024-02-26T07:34:25;93417.63;;;6.12
12662;BMP180;3200;48.204;11.576;2024-02-26T07:36:57;93377.00;;;5.96
12662;BMP180;3200;48.204;11.576;2024-02-26T07:39:23;93439.28;;;6.48
12662;BMP180;3200;48.204;11.576;2024-02-26T07:41:49;93361.06;;;5.91
12662;BMP180;3200;48.204;11.576;2024-02-26T07:44:17;93349.72;;;5.90
12662;BMP180;3200;48.204;11.576;2024-02-26T07:46:44;93401.09;;;6.17
12662;BMP180;3200;48.204;11.576;2024-02-26T07:49:10;93439.06;;;6.32
12662;BMP180;3200;48.204;11.576;2024-02-26T07:51:35;93444.78;;;5.84
12662;BMP180;3200;48.204;11.576;2024-02-26T07:54:02;93440.66;;;5.76
12662;BMP180;3200;48.204;11.576;2024-02-26T07:56:27;93455.97;;;6.20
12662;BMP180;3200;48.204;11.576;2024-02-26T07:58:53;93452.78;;;6.34
12662;BMP180;3200;48.204;11.576;2024-02-26T08:01:19;93433.78;;;6.32
12662;BMP180;3200;48.204;11.576;2024-02-26T08:03:45;93471.28;;;6.51
12662;BMP180;3200;48.204;11.576;2024-02-26T08:06:11;93462.09;;;6.37
12662;BMP180;3200;48.204;11.576;2024-02-26T08:08:36;93441.69;;;6.32
12662;BMP180;3200;48.204;11.576;2024-02-26T08:11:03;93460.78;;;6.39
12662;BMP180;3200;48.204;11.576;2024-02-26T08:13:29;93439.72;;;6.73
12662;BMP180;3200;48.204;11.576;2024-02-26T08:15:55;93442.56;;;6.88
12662;BMP180;3200;48.204;11.576;2024-02-26T08:18:20;93453.84;;;7.39
12662;BMP180;3200;48.204;11.576;2024-02-26T08:20:46;93449.59;;;7.60
12662;BMP180;3200;48.204;11.576;2024-02-26T08:23:14;93450.81;;;7.75
12662;BMP180;3200;48.204;11.576;2024-02-26T08:25:40;93448.91;;;7.92
12662;BMP180;3200;48.204;11.576;2024-02-26T08:28:06;93426.66;;;7.66
12662;BMP180;3200;48.204;11.576;2024-02-26T08:30:31;93456.09;;;7.75
12662;BMP180;3200;48.204;11.576;2024-02-26T08:32:57;93446.16;;;7.82
12662;BMP180;3200;48.204;11.576;2024-02-26T08:35:23;93466.44;;;8.25
12662;BMP180;3200;48.204;11.576;2024-02-26T08:37:49;93457.41;;;8.48
12662;BMP180;3200;48.204;11.576;2024-02-26T08:40:15;93431.47;;;8.23
12662;BMP180;3200;48.204;11.576;2024-02-26T08:42:41;93464.78;;;8.46
12662;BMP180;3200;48.204;11.576;2024-02-26T08:45:08;93460.44;;;8.62
12662;BMP180;3200;48.204;11.576;2024-02-26T08:47:34;93458.50;;;8.52
12662;BMP180;3200;48.204;11.576;2024-02-26T08:50:00;93457.34;;;8.38
12662;BMP180;3200;48.204;11.576;2024-02-26T08:52:32;93467.78;;;8.55
12662;BMP180;3200;48.204;11.576;2024-02-26T08:54:58;93461.03;;;8.42
12662;BMP180;3200;48.204;11.576;2024-02-26T08:57:24;93469.09;;;8.52
12662;BMP180;3200;48.204;11.576;2024-02-26T09:00:02;93468.88;;;8.59
12662;BMP180;3200;48.204;11.576;2024-02-26T09:02:27;93478.22;;;8.66
12662;BMP180;3200;48.204;11.576;2024-02-26T09:04:56;93477.50;;;8.22
12662;BMP180;3200;48.204;11.576;2024-02-26T09:07:22;93474.00;;;8.38
12662;BMP180;3200;48.204;11.576;2024-02-26T09:09:48;93470.41;;;8.50
12662;BMP180;3200;48.204;11.576;2024-02-26T09:12:14;93471.59;;;8.37
12662;BMP180;3200;48.204;11.576;2024-02-26T09:14:39;93452.47;;;8.57
12662;BMP180;3200;48.204;11.576;2024-02-26T09:17:05;93413.94;;;8.17
12662;BMP180;3200;48.204;11.576;2024-02-26T09:19:33;93419.94;;;8.07
12662;BMP180;3200;48.204;11.576;2024-02-26T09:21:59;93416.47;;;8.61
12662;BMP180;3200;48.204;11.576;2024-02-26T09:24:27;93450.28;;;9.23
12662;BMP180;3200;48.204;11.576;2024-02-26T09:26:52;93404.66;;;8.41
12662;BMP180;3200;48.204;11.576;2024-02-26T09:29:18;93377.84;;;8.33
12662;BMP180;3200;48.204;11.576;2024-02-26T09:31:44;93377.47;;;8.19
12662;BMP180;3200;48.204;11.576;2024-02-26T09:34:13;93411.34;;;8.22
12662;BMP180;3200;48.204;11.576;2024-02-26T09:36:39;93410.81;;;8.47
12662;BMP180;3200;48.204;11.576;2024-02-26T09:39:05;93374.00;;;7.86
12662;BMP180;3200;48.204;11.576;2024-02-26T09:41:33;93423.88;;;8.96
12662;BMP180;3200;48.204;11.576;2024-02-26T09:44:02;93420.00;;;9.09
12662;BMP180;3200;48.204;11.576;2024-02-26T09:46:30;93456.72;;;9.37
12662;BMP180;3200;48.204;11.576;2024-02-26T09:48:57;93457.63;;;9.11
12662;BMP180;3200;48.204;11.576;2024-02-26T09:51:23;93455.59;;;9.23
12662;BMP180;3200;48.204;11.576;2024-02-26T09:53:53;93434.16;;;8.87
12662;BMP180;3200;48.204;11.576;2024-02-26T09:56:19;93392.97;;;8.69
12662;BMP180;3200;48.204;11.576;2024-02-26T09:58:47;93349.63;;;9.43
12662;BMP180;3200;48.204;11.576;2024-02-26T10:01:19;93351.16;;;9.24
12662;BMP180;3200;48.204;11.576;2024-02-26T10:03:52;93395.00;;;9.52
12662;BMP180;3200;48.204;11.576;2024-02-26T10:06:21;93378.50;;;9.40
12662;BMP180;3200;48.204;11.576;2024-02-26T10:08:47;93407.69;;;9.40
12662;BMP180;3200;48.204;11.576;2024-02-26T10:11:15;93333.09;;;9.16
12662;BMP180;3200;48.204;11.576;2024-02-26T10:13:41;93375.56;;;9.31
12662;BMP180;3200;48.204;11.576;2024-02-26T10:16:07;93375.19;;;9.12
12662;BMP180;3200;48.204;11.576;2024-02-26T10:18:48;93445.03;;;9.33
12662;BMP180;3200;48.204;11.576;2024-02-26T10:21:17;93327.16;;;8.99
12662;BMP180;3200;48.204;11.576;2024-02-26T10:23:46;93320.75;;;8.84
12662;BMP180;3200;48.204;11.576;2024-02-26T10:26:14;93317.94;;;9.06
12662;BMP180;3200;48.204;11.576;2024-02-26T10:28:45;93326.44;;;9.08
12662;BMP180;3200;48.204;11.576;2024-02-26T10:31:14;93368.53;;;9.00
12662;BMP180;3200;48.204;11.576;2024-02-26T10:37:28;93402.34;;;9.97
12662;BMP180;3200;48.204;11.576;2024-02-26T10:39:56;93366.69;;;9.68
12662;BMP180;3200;48.204;11.576;2024-02-26T10:42:22;93369.19;;;9.27
12662;BMP180;3200;48.204;11.576;2024-02-26T10:44:48;93431.41;;;9.67
12662;BMP180;3200;48.204;11.576;2024-02-26T10:47:14;93371.91;;;9.37
12662;BMP180;3200;48.204;11.576;2024-02-26T10:49:48;93364.00;;;9.53
12662;BMP180;3200;48.204;11.576;2024-02-26T10:52:17;93366.22;;;10.07
12662;BMP180;3200;48.204;11.576;2024-02-26T10:54:47;93376.59;;;10.03
12662;BMP180;3200;48.204;11.576;2024-02-26T10:57:15;93339.16;;;9.84
12662;BMP180;3200;48.204;11.576;2024-02-26T10:59:44;93409.25;;;10.09
12662;BMP180;3200;48.204;11.576;2024-02-26T11:02:11;93383.75;;;10.03
12662;BMP180;3200;48.204;11.576;2024-02-26T11:04:39;93467.78;;;10.49
12662;BMP180;3200;48.204;11.576;2024-02-26T11:07:05;93339.97;;;10.05
12662;BMP180;3200;48.204;11.576;2024-02-26T11:09:32;93381.13;;;10.08
12662;BMP180;3200;48.204;11.576;2024-02-26T11:11:59;93421.50;;;10.30
12662;BMP180;3200;48.204;11.576;2024-02-26T11:14:26;93419.41;;;10.27
12662;BMP180;3200;48.204;11.576;2024-02-26T11:16:57;93452.34;;;10.72
12662;BMP180;3200;48.204;11.576;2024-02-26T11:19:26;93467.50;;;10.87
12662;BMP180;3200;48.204;11.576;2024-02-26T11:21:52;93459.81;;;10.85
12662;BMP180;3200;48.204;11.576;2024-02-26T11:24:18;93460.84;;;11.35
12662;BMP180;3200;48.204;11.576;2024-02-26T11:26:58;93407.41;;;11.16
12662;BMP180;3200;48.204;11.576;2024-02-26T11:29:34;93394.94;;;10.86
12662;BMP180;3200;48.204;11.576;2024-02-26T11:32:01;93365.72;;;10.96
12662;BMP180;3200;48.204;11.576;2024-02-26T11:34:28;93448.41;;;12.00
12662;BMP180;3200;48.204;11.576;2024-02-26T11:36:55;93393.84;;;11.18
12662;BMP180;3200;48.204;11.576;2024-02-26T11:39:23;93369.63;;;11.19
12662;BMP180;3200;48.204;11.576;2024-02-26T11:41:50;93443.31;;;12.09
12662;BMP180;3200;48.204;11.576;2024-02-26T11:44:29;93398.53;;;11.51
12662;BMP180;3200;48.204;11.576;2024-02-26T11:46:56;93394.72;;;11.83
12662;BMP180;3200;48.204;11.576;2024-02-26T11:51:55;93373.47;;;11.68
12662;BMP180;3200;48.204;11.576;2024-02-26T11:54:52;93451.66;;;11.87
12662;BMP180;3200;48.204;11.576;2024-02-26T11:57:32;93440.69;;;11.99
12662;BMP180;3200;48.204;11.576;2024-02-26T12:02:49;93415.25;;;11.67
12662;BMP180;3200;48.204;11.576;2024-02-26T12:05:21;93422.59;;;11.96
12662;BMP180;3200;48.204;11.576;2024-02-26T12:08:06;93440.59;;;11.49
12662;BMP180;3200;48.204;11.576;2024-02-26T12:13:13;93429.66;;;11.51
12662;BMP180;3200;48.204;11.576;2024-02-26T12:15:45;93432.06;;;11.58
12662;BMP180;3200;48.204;11.576;2024-02-26T12:18:18;93420.94;;;11.35
12662;BMP180;3200;48.204;11.576;2024-02-26T12:20:44;93428.41;;;11.23
12662;BMP180;3200;48.204;11.576;2024-02-26T12:23:15;93443.28;;;11.34
12662;BMP180;3200;48.204;11.576;2024-02-26T12:25:44;93450.22;;;11.30
12662;BMP180;3200;48.204;11.576;2024-02-26T12:28:10;93437.13;;;11.49
12662;BMP180;3200;48.204;11.576;2024-02-26T12:30:36;93455.38;;;11.81
12662;BMP180;3200;48.204;11.576;2024-02-26T12:33:02;93435.19;;;11.70
12662;BMP180;3200;48.204;11.576;2024-02-26T12:35:29;93461.81;;;11.65
12662;BMP180;3200;48.204;11.576;2024-02-26T12:37:58;93466.47;;;12.09
12662;BMP180;3200;48.204;11.576;2024-02-26T12:40:25;93445.38;;;11.37
12662;BMP180;3200;48.204;11.576;2024-02-26T12:42:53;93443.28;;;11.34
12662;BMP180;3200;48.204;11.576;2024-02-26T12:45:21;93474.31;;;11.64
12662;BMP180;3200;48.204;11.576;2024-02-26T12:47:47;93472.47;;;11.60
12662;BMP180;3200;48.204;11.576;2024-02-26T12:50:15;93384.25;;;11.27
12662;BMP180;3200;48.204;11.576;2024-02-26T12:52:45;93394.88;;;11.32
12662;BMP180;3200;48.204;11.576;2024-02-26T12:55:16;93484.34;;;12.03
12662;BMP180;3200;48.204;11.576;2024-02-26T12:57:44;93457.72;;;12.03
12662;BMP180;3200;48.204;11.576;2024-02-26T13:00:17;93460.03;;;12.20
12662;BMP180;3200;48.204;11.576;2024-02-26T13:02:45;93470.22;;;12.02
12662;BMP180;3200;48.204;11.576;2024-02-26T13:05:14;93400.13;;;11.47
12662;BMP180;3200;48.204;11.576;2024-02-26T13:12:26;93457.50;;;11.79
12662;BMP180;3200;48.204;11.576;2024-02-26T13:15:03;93469.75;;;11.95
12662;BMP180;3200;48.204;11.576;2024-02-26T13:17:32;93459.72;;;11.57
12662;BMP180;3200;48.204;11.576;2024-02-26T13:19:58;93423.59;;;11.30
12662;BMP180;3200;48.204;11.576;2024-02-26T13:22:24;93454.38;;;11.62
12662;BMP180;3200;48.204;11.576;2024-02-26T13:24:57;93483.63;;;11.82
12662;BMP180;3200;48.204;11.576;2024-02-26T13:27:24;93467.66;;;11.72
12662;BMP180;3200;48.204;11.576;2024-02-26T13:30:27;93492.44;;;11.67
12662;BMP180;3200;48.204;11.576;2024-02-26T13:32:53;93491.63;;;11.67
12662;BMP180;3200;48.204;11.576;2024-02-26T13:35:19;93480.75;;;11.58
12662;BMP180;3200;48.204;11.576;2024-02-26T13:37:45;93503.06;;;11.57
12662;BMP180;3200;48.204;11.576;2024-02-26T13:40:11;93498.53;;;11.68
12662;BMP180;3200;48.204;11.576;2024-02-26T13:42:38;93482.59;;;11.47
12662;BMP180;3200;48.204;11.576;2024-02-26T13:45:05;93454.97;;;11.28
12662;BMP180;3200;48.204;11.576;2024-02-26T13:47:34;93449.13;;;11.31
12662;BMP180;3200;48.204;11.576;2024-02-26T13:50:01;93446.19;;;11.33
12662;BMP180;3200;48.204;11.576;2024-02-26T13:52:28;93482.59;;;11.47
12662;BMP180;3200;48.204;11.576;2024-02-26T13:54:53;93456.59;;;11.14
12662;BMP180;3200;48.204;11.576;2024-02-26T13:57:19;93469.88;;;11.39
12662;BMP180;3200;48.204;11.576;2024-02-26T13:59:46;93431.88;;;11.03
12662;BMP180;3200;48.204;11.576;2024-02-26T14:02:12;93490.59;;;11.42
12662;BMP180;3200;48.204;11.576;2024-02-26T14:04:38;93433.19;;;11.26
12662;BMP180;3200;48.204;11.576;2024-02-26T14:07:05;93452.06;;;11.40
12662;BMP180;3200;48.204;11.576;2024-02-26T14:09:31;93434.28;;;11.20
12662;BMP180;3200;48.204;11.576;2024-02-26T14:11:58;93485.03;;;11.39
12662;BMP180;3200;48.204;11.576;2024-02-26T14:14:24;93445.44;;;11.17
12662;BMP180;3200;48.204;11.576;2024-02-26T14:16:51;93453.38;;;11.32
12662;BMP180;3200;48.204;11.576;2024-02-26T14:19:17;93534.19;;;11.82
12662;BMP180;3200;48.204;11.576;2024-02-26T14:21:43;93515.56;;;11.82
12662;BMP180;3200;48.204;11.576;2024-02-26T14:24:09;93469.34;;;11.32
12662;BMP180;3200;48.204;11.576;2024-02-26T14:26:35;93487.94;;;11.37
12662;BMP180;3200;48.204;11.576;2024-02-26T14:29:01;93512.09;;;11.66
12662;BMP180;3200;48.204;11.576;2024-02-26T14:31:27;93463.50;;;11.35
12662;BMP180;3200;48.204;11.576;2024-02-26T14:33:52;93542.41;;;11.81